Lincolndale, New York
Current Conditions -  °F | °C
As of 2:53 AM on Monday 22 Dec 2014 (Local Time) from KDXR Reporting Station
Overcast Overcast  
Wind Chill: 33°   Ceiling: 800
Heat Index: 33°   Visibility: 9mi
Dew Point: 29°   Wind: 3mph
Humidity: 85%   Direction: 70°ENE
Pressure: 30.33"   Gusts: NA
Location:  41.32°N, 73.72°W
Report Text: KDXR 220753Z AUTO 07003KT 9SM OVC008 01/M02 A3033 RMK AO2 SNB12E25 SLP274 P0000 T00061017
Loading
Personal Weather Stations






























Interactive Weather Map New forecast layout! Learn more

10-Day Weather Forecast

Advertisements
Track Severe Weather on mobile